Time;durP1;ratioP1;P1;durP2;ratioP2;P2;SDS_P1;SDS_P2;PMS_P1;PMS_P2;Temp;Humidity;BMP_temperature;BMP_pressure;BME280_temperature;BME280_humidity;BME280_pressure;Samples;Min_cycle;Max_cycle;Signal;HPM_P1;HPM_P2
2023/05/16 00:00:08;;;;;;;4.10;2.17;;;14.80;99.90;;;;;;4935997;29;20054;-70
2023/05/16 00:02:36;;;;;;;4.75;2.40;;;14.80;99.90;;;;;;4951649;28;20051;-70
2023/05/16 00:05:06;;;;;;;6.85;2.55;;;14.80;99.90;;;;;;4954013;28;20051;-71
2023/05/16 00:07:34;;;;;;;3.22;2.90;;;14.80;99.90;;;;;;4949702;28;20098;-72
2023/05/16 00:10:02;;;;;;;3.58;1.95;;;14.80;99.90;;;;;;4953082;28;20493;-70
2023/05/16 00:12:32;;;;;;;6.47;2.47;;;14.70;99.90;;;;;;4937686;28;20058;-71
2023/05/16 00:15:00;;;;;;;2.88;2.35;;;14.70;99.90;;;;;;4952842;28;20051;-71
2023/05/16 00:17:27;;;;;;;2.97;2.67;;;14.70;99.90;;;;;;4952506;28;20423;-70
2023/05/16 00:19:57;;;;;;;3.00;2.47;;;14.60;99.90;;;;;;4952971;28;20047;-71
2023/05/16 00:22:26;;;;;;;6.82;3.40;;;14.60;99.90;;;;;;4953211;28;20046;-70
2023/05/16 00:24:53;;;;;;;5.78;2.83;;;14.60;99.90;;;;;;4953384;28;20501;-70
2023/05/16 00:27:21;;;;;;;10.63;3.80;;;14.50;99.90;;;;;;4952182;28;20053;-71
2023/05/16 00:29:49;;;;;;;4.90;2.60;;;14.50;99.90;;;;;;4952960;28;20071;-71
2023/05/16 00:32:18;;;;;;;3.95;2.80;;;14.50;99.90;;;;;;4951801;29;20063;-71
2023/05/16 00:34:46;;;;;;;5.20;2.78;;;14.60;99.90;;;;;;4950049;29;20066;-71
2023/05/16 00:37:14;;;;;;;4.82;2.65;;;14.50;99.90;;;;;;4952289;28;20516;-70
2023/05/16 00:39:43;;;;;;;8.25;3.08;;;14.50;99.90;;;;;;4950934;29;20511;-71
2023/05/16 00:42:10;;;;;;;4.90;2.92;;;14.50;99.90;;;;;;4953764;28;20504;-70
2023/05/16 00:44:38;;;;;;;3.28;2.50;;;14.50;99.90;;;;;;4934657;29;20058;-71
2023/05/16 00:47:07;;;;;;;3.35;2.63;;;14.40;99.90;;;;;;4952475;28;20058;-73
2023/05/16 00:49:34;;;;;;;6.28;3.22;;;14.40;99.90;;;;;;4952799;28;20166;-72
2023/05/16 00:52:01;;;;;;;8.13;3.25;;;14.40;99.90;;;;;;4948690;28;20062;-70
2023/05/16 00:54:30;;;;;;;4.47;2.80;;;14.40;99.90;;;;;;4965445;28;20051;-71
2023/05/16 00:57:00;;;;;;;6.97;3.03;;;14.40;99.90;;;;;;4948078;29;20071;-71
2023/05/16 00:59:27;;;;;;;6.68;3.00;;;14.30;99.90;;;;;;4948728;29;20058;-71
2023/05/16 01:01:55;;;;;;;6.03;2.60;;;14.30;99.90;;;;;;4920994;29;20052;-71
2023/05/16 01:04:22;;;;;;;6.50;2.67;;;14.20;99.90;;;;;;4951287;28;20097;-70
2023/05/16 01:06:49;;;;;;;7.63;2.75;;;14.20;99.90;;;;;;4953554;28;20165;-70
2023/05/16 01:09:18;;;;;;;7.10;2.90;;;14.20;99.90;;;;;;4940992;28;20079;-70
2023/05/16 01:11:53;;;;;;;3.08;2.78;;;14.20;99.90;;;;;;4947999;29;20139;-70
2023/05/16 01:14:29;;;;;;;4.80;3.00;;;14.20;99.90;;;;;;4951865;28;20043;-71
2023/05/16 01:17:05;;;;;;;3.97;2.80;;;14.10;99.90;;;;;;4951965;29;20051;-70
2023/05/16 01:19:53;;;;;;;5.40;3.50;;;14.10;99.90;;;;;;4949593;29;20054;-70
2023/05/16 01:22:30;;;;;;;9.07;2.78;;;14.00;99.90;;;;;;4938206;29;20055;-71
2023/05/16 01:25:06;;;;;;;4.07;2.70;;;13.90;99.90;;;;;;4951055;29;20079;-70
2023/05/16 01:27:37;;;;;;;5.63;2.80;;;14.00;99.90;;;;;;4951321;29;20534;-70
2023/05/16 01:30:16;;;;;;;3.72;2.15;;;13.90;99.90;;;;;;4951760;28;20044;-69
2023/05/16 01:32:43;;;;;;;4.85;3.00;;;13.90;99.90;;;;;;4949810;28;20240;-71
2023/05/16 01:35:13;;;;;;;4.72;2.63;;;13.90;99.90;;;;;;4950415;29;20046;-72
2023/05/16 01:37:46;;;;;;;4.22;2.95;;;13.90;99.90;;;;;;4951312;28;20769;-71
2023/05/16 01:40:16;;;;;;;;;;;13.80;99.90;;;;;;4953778;28;20134;-71
2023/05/16 01:42:47;;;;;;;6.28;2.35;;;13.80;99.90;;;;;;4952182;28;19933;-71
2023/05/16 01:45:22;;;;;;;5.22;2.45;;;13.80;99.90;;;;;;4951940;28;20043;-71
2023/05/16 01:47:58;;;;;;;3.88;2.20;;;13.80;99.90;;;;;;4931141;29;20603;-71
2023/05/16 01:50:26;;;;;;;4.50;2.42;;;13.80;99.90;;;;;;4947024;29;20152;-72
2023/05/16 01:52:59;;;;;;;4.00;2.72;;;13.80;99.90;;;;;;4947688;28;20663;-71
2023/05/16 01:55:36;;;;;;;5.30;2.83;;;13.80;99.90;;;;;;4955220;28;20055;-72
2023/05/16 01:58:08;;;;;;;9.20;3.65;;;13.70;99.90;;;;;;4945873;29;20051;-72
2023/05/16 02:00:35;;;;;;;6.20;3.20;;;13.70;99.90;;;;;;4953640;28;20149;-71
2023/05/16 02:03:02;;;;;;;5.97;2.83;;;13.70;99.90;;;;;;4951971;28;20067;-71
2023/05/16 02:05:29;;;;;;;6.15;3.25;;;13.70;99.90;;;;;;4951362;28;20448;-71
2023/05/16 02:07:56;;;;;;;3.13;2.83;;;13.70;99.90;;;;;;4950766;28;20527;-72
2023/05/16 02:10:24;;;;;;;7.07;3.10;;;13.70;99.90;;;;;;4935092;29;20572;-71
2023/05/16 02:12:52;;;;;;;3.17;2.75;;;13.70;99.90;;;;;;4952225;28;20171;-71
2023/05/16 02:15:21;;;;;;;6.03;2.72;;;13.70;99.90;;;;;;4964876;28;20055;-71
2023/05/16 02:17:49;;;;;;;4.22;3.20;;;13.70;99.90;;;;;;4952013;28;20114;-70
2023/05/16 02:20:16;;;;;;;5.25;3.10;;;13.60;99.90;;;;;;4950920;28;20114;-70
2023/05/16 02:22:46;;;;;;;4.78;2.55;;;13.60;99.90;;;;;;4949194;28;20358;-71
2023/05/16 02:25:14;;;;;;;7.50;2.42;;;13.60;99.90;;;;;;4950083;29;20443;-70
2023/05/16 02:27:42;;;;;;;2.78;2.45;;;13.60;99.90;;;;;;4936082;29;20051;-70
2023/05/16 02:30:11;;;;;;;5.85;2.88;;;13.60;99.90;;;;;;4951962;28;20055;-70
2023/05/16 02:32:40;;;;;;;4.57;2.42;;;13.60;99.90;;;;;;4950735;28;20131;-71
2023/05/16 02:35:09;;;;;;;5.53;2.10;;;13.60;99.90;;;;;;4947539;29;20067;-71
2023/05/16 02:37:36;;;;;;;3.03;2.33;;;13.70;99.90;;;;;;4958608;28;20077;-71
2023/05/16 02:40:04;;;;;;;4.45;2.35;;;13.70;99.90;;;;;;4952572;29;20055;-71
2023/05/16 02:42:32;;;;;;;2.95;2.25;;;13.70;99.90;;;;;;4950475;28;20047;-71
2023/05/16 02:44:59;;;;;;;5.47;2.53;;;13.80;99.90;;;;;;4949893;28;20051;-71
2023/05/16 02:47:26;;;;;;;4.65;2.10;;;13.80;99.90;;;;;;4950177;28;20063;-71
2023/05/16 02:49:55;;;;;;;3.70;2.70;;;13.80;99.90;;;;;;4951786;28;20046;-71
2023/05/16 02:52:22;;;;;;;3.88;2.38;;;13.90;99.90;;;;;;4954515;28;20531;-71
2023/05/16 02:54:50;;;;;;;6.50;2.60;;;13.90;99.90;;;;;;4953376;28;20075;-71
2023/05/16 02:57:17;;;;;;;3.80;2.22;;;13.90;99.90;;;;;;4969316;28;20059;-71
2023/05/16 02:59:44;;;;;;;8.63;3.42;;;14.00;99.90;;;;;;4953310;28;20051;-70
2023/05/16 03:02:12;;;;;;;6.65;2.70;;;14.00;99.90;;;;;;4950439;29;20055;-71
2023/05/16 03:04:40;;;;;;;6.22;3.03;;;14.10;99.90;;;;;;4952677;28;20134;-72
2023/05/16 03:07:08;;;;;;;4.07;3.20;;;14.20;99.90;;;;;;4952339;28;20043;-70
2023/05/16 03:09:35;;;;;;;7.07;3.10;;;14.20;99.90;;;;;;4954088;28;20051;-71
2023/05/16 03:12:03;;;;;;;3.35;3.03;;;14.20;99.90;;;;;;4966758;28;20516;-70
2023/05/16 03:14:30;;;;;;;6.30;2.95;;;14.30;99.90;;;;;;4933993;29;20520;-73
2023/05/16 03:16:57;;;;;;;4.85;2.70;;;14.30;99.90;;;;;;4952237;29;20050;-72
2023/05/16 03:19:25;;;;;;;4.38;2.63;;;14.40;99.90;;;;;;4951140;28;20047;-71
2023/05/16 03:21:54;;;;;;;7.57;2.53;;;14.40;99.90;;;;;;4952734;28;20043;-71
2023/05/16 03:24:22;;;;;;;5.30;2.75;;;14.50;99.90;;;;;;4949362;29;20664;-71
2023/05/16 03:26:50;;;;;;;4.93;2.60;;;14.50;99.90;;;;;;4952322;28;20055;-70
2023/05/16 03:29:20;;;;;;;5.70;3.10;;;14.50;99.90;;;;;;4952869;28;20150;-70
2023/05/16 03:31:47;;;;;;;9.75;3.13;;;14.60;99.90;;;;;;4953412;28;20059;-71
2023/05/16 03:34:15;;;;;;;5.05;2.75;;;14.60;99.90;;;;;;4967944;28;20043;-71
2023/05/16 03:36:43;;;;;;;3.88;2.90;;;14.60;99.90;;;;;;4947958;28;20558;-71
2023/05/16 03:39:10;;;;;;;7.35;2.92;;;14.60;99.90;;;;;;4950766;29;20039;-71
2023/05/16 03:41:39;;;;;;;6.18;2.72;;;14.60;99.90;;;;;;4950968;29;20055;-71
2023/05/16 03:44:06;;;;;;;8.20;2.83;;;14.60;99.90;;;;;;4953293;28;20047;-71
2023/05/16 03:46:33;;;;;;;4.57;2.75;;;14.60;99.90;;;;;;4953846;28;20054;-73
2023/05/16 03:49:00;;;;;;;9.00;3.00;;;14.50;99.90;;;;;;4952785;29;20039;-72
2023/05/16 03:51:29;;;;;;;2.55;2.35;;;14.50;99.90;;;;;;4954214;28;20059;-72
2023/05/16 03:53:56;;;;;;;13.13;3.00;;;14.50;99.90;;;;;;4949987;29;20568;-72
2023/05/16 03:56:24;;;;;;;5.90;2.72;;;14.50;99.90;;;;;;4944678;28;20505;-76
2023/05/16 03:58:52;;;;;;;3.97;2.40;;;14.50;99.90;;;;;;4934738;29;20162;-76
2023/05/16 04:01:19;;;;;;;7.05;2.85;;;14.50;99.90;;;;;;4950086;28;20408;-76
2023/05/16 04:03:47;;;;;;;7.70;2.75;;;14.60;99.90;;;;;;4949613;28;20051;-77
2023/05/16 04:06:14;;;;;;;7.80;2.33;;;14.60;99.90;;;;;;4952342;28;20047;-76
2023/05/16 04:08:43;;;;;;;5.90;2.78;;;14.60;99.90;;;;;;4950705;28;20420;-72
2023/05/16 04:11:11;;;;;;;4.07;2.75;;;14.70;99.90;;;;;;4942945;29;20449;-71
2023/05/16 04:13:38;;;;;;;4.65;2.42;;;14.80;99.90;;;;;;4948464;28;20540;-71
2023/05/16 04:16:07;;;;;;;4.70;2.70;;;15.00;99.90;;;;;;4957965;28;20063;-70
2023/05/16 04:18:35;;;;;;;6.28;2.60;;;15.10;99.90;;;;;;4951015;28;20058;-71
2023/05/16 04:21:02;;;;;;;4.75;2.20;;;15.30;99.90;;;;;;4945578;28;20158;-72
2023/05/16 04:23:29;;;;;;;5.10;2.20;;;15.40;99.90;;;;;;4944731;28;20142;-72
2023/05/16 04:25:58;;;;;;;6.30;2.42;;;15.60;99.90;;;;;;4952645;28;20468;-77
2023/05/16 04:28:25;;;;;;;4.22;2.22;;;15.80;99.90;;;;;;4943885;29;20047;-77
2023/05/16 04:30:53;;;;;;;3.15;2.10;;;15.90;99.90;;;;;;4943499;28;20435;-79
2023/05/16 04:33:21;;;;;;;4.00;1.88;;;16.00;99.90;;;;;;4947005;29;20058;-78
2023/05/16 04:35:49;;;;;;;11.35;2.10;;;16.10;99.90;;;;;;4953550;28;20055;-79
2023/05/16 04:38:16;;;;;;;10.25;2.28;;;16.20;99.40;;;;;;4959117;28;20055;-77
2023/05/16 04:40:43;;;;;;;8.45;1.88;;;16.30;98.70;;;;;;4954317;28;20122;-78
2023/05/16 04:43:10;;;;;;;6.25;1.83;;;16.40;98.40;;;;;;4953595;28;20059;-76
2023/05/16 04:45:38;;;;;;;1.83;1.60;;;16.50;98.30;;;;;;4942595;28;20424;-78
2023/05/16 04:48:05;;;;;;;4.95;1.80;;;16.60;97.90;;;;;;4947205;29;20120;-72
2023/05/16 04:50:34;;;;;;;5.03;2.33;;;16.70;97.00;;;;;;4952122;28;20052;-72
2023/05/16 04:53:02;;;;;;;8.05;2.05;;;16.80;96.40;;;;;;4953107;28;20067;-78
2023/05/16 04:55:29;;;;;;;5.40;1.92;;;16.80;96.40;;;;;;4949649;29;20070;-77
2023/05/16 04:57:56;;;;;;;3.25;2.00;;;16.90;95.50;;;;;;4951640;28;20420;-79
2023/05/16 05:00:24;;;;;;;7.55;4.63;;;16.90;95.40;;;;;;4947440;28;20043;-74
2023/05/16 05:02:51;;;;;;;9.23;2.20;;;17.00;95.60;;;;;;4961926;28;20047;-73
2023/05/16 05:05:19;;;;;;;8.70;2.08;;;17.20;95.40;;;;;;4939369;29;20142;-73
2023/05/16 05:07:48;;;;;;;9.20;1.92;;;17.30;94.70;;;;;;4949002;28;20051;-78
2023/05/16 05:10:16;;;;;;;1.75;1.65;;;17.50;94.20;;;;;;4947120;28;20066;-79
2023/05/16 05:12:43;;;;;;;4.10;1.80;;;17.60;93.60;;;;;;4950969;28;20051;-77
2023/05/16 05:15:10;;;;;;;2.92;2.35;;;17.50;93.50;;;;;;4965910;28;20484;-79
2023/05/16 05:17:38;;;;;;;4.10;1.98;;;17.50;93.60;;;;;;4948839;28;20047;-78
2023/05/16 05:20:07;;;;;;;9.00;2.40;;;17.60;93.30;;;;;;4950349;28;20082;-73
2023/05/16 05:22:34;;;;;;;9.55;1.92;;;17.70;93.10;;;;;;4949334;28;20079;-78
2023/05/16 05:25:04;;;;;;;8.25;2.45;;;17.70;92.90;;;;;;4951177;28;20051;-79
2023/05/16 05:27:31;;;;;;;5.60;2.03;;;17.90;93.00;;;;;;4950793;28;20065;-79
2023/05/16 05:29:59;;;;;;;5.90;2.08;;;18.10;92.50;;;;;;4950583;29;20047;-78
2023/05/16 05:32:26;;;;;;;6.35;2.30;;;18.40;92.00;;;;;;4950048;28;20051;-77
2023/05/16 05:34:53;;;;;;;5.90;2.08;;;18.70;90.70;;;;;;4950192;28;20047;-79
2023/05/16 05:37:20;;;;;;;3.95;1.98;;;19.00;89.60;;;;;;4947507;28;20055;-79
2023/05/16 05:39:48;;;;;;;5.65;1.80;;;19.20;88.70;;;;;;4945415;29;20051;-78
2023/05/16 05:42:16;;;;;;;8.65;1.75;;;19.50;87.90;;;;;;4944349;29;20043;-78
2023/05/16 05:44:43;;;;;;;2.20;2.00;;;20.00;86.70;;;;;;4940625;29;20053;-77
2023/05/16 05:47:11;;;;;;;5.07;2.40;;;20.30;84.00;;;;;;4951352;29;20123;-79
2023/05/16 05:49:38;;;;;;;9.38;2.53;;;20.80;82.70;;;;;;4952386;28;20055;-79
2023/05/16 05:52:06;;;;;;;8.77;2.38;;;21.30;81.00;;;;;;4952905;28;20134;-79
2023/05/16 05:54:33;;;;;;;7.40;1.92;;;21.70;79.60;;;;;;4952026;28;20365;-79
2023/05/16 05:57:01;;;;;;;3.55;2.15;;;22.10;75.40;;;;;;4951150;29;20055;-78
2023/05/16 05:59:29;;;;;;;8.52;2.40;;;22.50;72.00;;;;;;4951293;28;20532;-79
2023/05/16 06:01:57;;;;;;;7.50;2.33;;;22.70;70.30;;;;;;4950575;29;20051;-77
2023/05/16 06:04:25;;;;;;;5.35;2.17;;;22.80;69.90;;;;;;4950892;28;20051;-77
2023/05/16 06:06:52;;;;;;;5.95;1.98;;;22.80;69.60;;;;;;4952347;28;20055;-77
2023/05/16 06:09:19;;;;;;;7.78;2.22;;;22.70;69.50;;;;;;4935543;29;20057;-70
2023/05/16 06:11:46;;;;;;;5.78;2.08;;;22.50;69.90;;;;;;4963622;28;20043;-70
2023/05/16 06:14:15;;;;;;;35.78;3.60;;;22.70;68.60;;;;;;4942218;28;20048;-70
2023/05/16 06:16:43;;;;;;;8.30;2.70;;;23.00;70.00;;;;;;4940673;28;20056;-70
2023/05/16 06:19:14;;;;;;;6.03;2.03;;;23.70;68.50;;;;;;4955144;28;20803;-70
2023/05/16 06:21:42;;;;;;;7.57;2.20;;;24.60;64.30;;;;;;4944591;28;20053;-71
2023/05/16 06:24:11;;;;;;;5.30;1.88;;;25.30;62.40;;;;;;4940356;29;20082;-70
2023/05/16 06:26:38;;;;;;;6.93;1.52;;;25.80;60.20;;;;;;4944753;28;20420;-70
2023/05/16 06:29:05;;;;;;;5.72;2.15;;;26.40;57.90;;;;;;4945329;28;20043;-70
2023/05/16 06:31:33;;;;;;;8.70;1.83;;;26.80;56.20;;;;;;4948272;29;20063;-70
2023/05/16 06:34:01;;;;;;;2.53;1.40;;;26.80;55.60;;;;;;4944289;28;20059;-70
2023/05/16 06:36:29;;;;;;;7.45;1.70;;;27.00;55.30;;;;;;4952121;29;20055;-71
2023/05/16 06:38:56;;;;;;;9.82;2.20;;;27.30;54.60;;;;;;4949642;28;20062;-72
2023/05/16 06:41:23;;;;;;;6.40;1.60;;;27.60;53.50;;;;;;4955964;28;20047;-70
2023/05/16 06:43:51;;;;;;;6.13;1.95;;;27.80;52.10;;;;;;4966453;28;20051;-71
2023/05/16 06:46:18;;;;;;;12.32;1.42;;;27.90;51.80;;;;;;4937340;28;20048;-70
2023/05/16 06:48:45;;;;;;;2.63;1.33;;;27.70;51.20;;;;;;4947800;28;20059;-70
2023/05/16 06:51:14;;;;;;;10.57;2.60;;;27.50;50.40;;;;;;4947435;29;20520;-71
2023/05/16 06:53:42;;;;;;;8.52;1.52;;;27.20;51.70;;;;;;4955050;28;20051;-70
2023/05/16 06:56:09;;;;;;;3.60;1.65;;;27.20;51.80;;;;;;4955051;28;20059;-71
2023/05/16 06:58:36;;;;;;;4.30;1.52;;;27.70;51.70;;;;;;4948721;29;20133;-70
2023/05/16 07:01:04;;;;;;;5.35;1.60;;;28.20;50.20;;;;;;4950533;28;20051;-70
2023/05/16 07:03:31;;;;;;;9.65;1.40;;;28.50;49.80;;;;;;4950545;28;20051;-69
2023/05/16 07:05:58;;;;;;;6.50;1.60;;;28.80;48.20;;;;;;4952095;28;20079;-70
2023/05/16 07:08:27;;;;;;;8.98;1.83;;;28.90;48.20;;;;;;4951908;28;20531;-70
2023/05/16 07:10:54;;;;;;;12.55;2.00;;;29.40;46.90;;;;;;4954710;28;20053;-70
2023/05/16 07:13:21;;;;;;;7.18;2.22;;;29.20;47.00;;;;;;4952870;28;20039;-70
2023/05/16 07:15:49;;;;;;;6.80;1.55;;;29.20;46.70;;;;;;4954002;29;20101;-70
2023/05/16 07:18:16;;;;;;;8.90;1.50;;;29.50;46.90;;;;;;4953672;28;20528;-70
2023/05/16 07:20:43;;;;;;;9.43;2.20;;;29.60;45.20;;;;;;4969938;28;20047;-70
2023/05/16 07:23:10;;;;;;;10.65;2.00;;;29.10;45.10;;;;;;4949861;29;20055;-71
2023/05/16 07:25:39;;;;;;;11.52;1.77;;;28.80;45.80;;;;;;4948990;29;20055;-71
2023/05/16 07:28:06;;;;;;;10.27;1.67;;;28.50;46.00;;;;;;4954968;28;20054;-71
2023/05/16 07:30:33;;;;;;;11.57;1.48;;;28.20;45.80;;;;;;4952817;28;20062;-71
2023/05/16 07:33:01;;;;;;;5.25;1.40;;;28.30;45.00;;;;;;4953815;28;20055;-71
2023/05/16 07:35:28;;;;;;;8.35;1.98;;;28.30;45.40;;;;;;4967282;28;20047;-71
2023/05/16 07:37:55;;;;;;;6.80;1.10;;;28.50;45.70;;;;;;4901270;28;20299;-71
2023/05/16 07:40:27;;;;;;;7.03;1.30;;;29.10;44.60;;;;;;4951303;29;20135;-71
2023/05/16 07:42:55;;;;;;;8.40;1.50;;;29.20;44.70;;;;;;4944988;28;20078;-71
2023/05/16 07:45:23;;;;;;;6.47;1.65;;;29.40;44.50;;;;;;4954472;28;20114;-70
2023/05/16 07:47:50;;;;;;;11.95;1.83;;;29.40;45.60;;;;;;4954254;28;20151;-71
2023/05/16 07:50:17;;;;;;;8.35;1.40;;;29.50;44.60;;;;;;4954038;28;20118;-71
2023/05/16 07:52:45;;;;;;;10.45;2.08;;;29.90;43.40;;;;;;4953673;28;20047;-70
2023/05/16 07:55:12;;;;;;;8.68;1.45;;;30.20;42.40;;;;;;4949724;28;20114;-68
2023/05/16 07:57:40;;;;;;;11.80;1.92;;;30.20;42.20;;;;;;4953160;28;20054;-69
2023/05/16 08:00:10;;;;;;;13.00;2.13;;;30.20;41.90;;;;;;4952497;28;20468;-68
2023/05/16 08:02:40;;;;;;;6.68;1.58;;;30.00;41.60;;;;;;4945317;29;20052;-69
2023/05/16 08:05:09;;;;;;;10.85;1.83;;;29.60;42.10;;;;;;4953132;28;20055;-69
2023/05/16 08:07:36;;;;;;;8.45;1.45;;;29.40;42.80;;;;;;4950253;28;20053;-69
2023/05/16 08:10:04;;;;;;;3.88;1.50;;;29.50;43.10;;;;;;4953586;28;20054;-69
2023/05/16 08:12:32;;;;;;;4.20;1.42;;;29.40;43.00;;;;;;4936592;29;20055;-69
2023/05/16 08:15:00;;;;;;;5.75;1.67;;;28.80;43.30;;;;;;4953456;28;20480;-69
2023/05/16 08:17:28;;;;;;;8.55;2.30;;;28.30;44.30;;;;;;4953392;28;20062;-69
2023/05/16 08:19:58;;;;;;;4.65;1.45;;;28.30;45.30;;;;;;4953089;29;20134;-69
2023/05/16 08:22:25;;;;;;;10.60;2.00;;;28.70;45.00;;;;;;4953264;28;20536;-70
2023/05/16 08:24:56;;;;;;;9.27;1.50;;;29.10;44.60;;;;;;4941076;28;20312;-70
2023/05/16 08:27:24;;;;;;;15.57;2.33;;;29.40;44.20;;;;;;4952650;28;20097;-71
2023/05/16 08:29:51;;;;;;;6.35;1.88;;;29.20;44.70;;;;;;4953198;28;20047;-72
2023/05/16 08:32:18;;;;;;;13.43;2.00;;;28.70;45.00;;;;;;4952535;28;20050;-73
2023/05/16 08:34:47;;;;;;;8.10;1.85;;;28.20;45.70;;;;;;4953911;28;20571;-76
2023/05/16 08:37:15;;;;;;;8.18;1.48;;;27.90;46.20;;;;;;4956159;28;20150;-75
2023/05/16 08:39:42;;;;;;;16.25;1.95;;;28.00;46.30;;;;;;4953205;28;20138;-75
2023/05/16 08:42:09;;;;;;;10.65;1.75;;;28.00;46.60;;;;;;4947272;28;20058;-74
2023/05/16 08:44:37;;;;;;;11.80;2.33;;;28.20;46.20;;;;;;4945626;28;20054;-75
2023/05/16 08:47:12;;;;;;;13.02;2.10;;;27.90;45.80;;;;;;4950796;28;20047;-77
2023/05/16 08:49:41;;;;;;;16.48;2.20;;;27.10;46.70;;;;;;4940963;29;20159;-74
2023/05/16 08:52:11;;;;;;;11.27;1.80;;;26.40;47.70;;;;;;4941093;28;20074;-75
2023/05/16 08:54:41;;;;;;;12.48;1.95;;;26.10;48.70;;;;;;4944771;28;20134;-75
2023/05/16 08:57:09;;;;;;;7.32;1.88;;;26.00;48.90;;;;;;4926170;29;20560;-76
2023/05/16 08:59:37;;;;;;;11.27;2.13;;;26.30;49.10;;;;;;4942718;28;20047;-72
2023/05/16 09:02:05;;;;;;;5.57;1.67;;;26.60;48.90;;;;;;4941832;29;20516;-71
2023/05/16 09:04:33;;;;;;;9.77;2.03;;;27.30;48.20;;;;;;4947237;28;20062;-71
2023/05/16 09:07:00;;;;;;;8.77;1.83;;;28.40;47.00;;;;;;4948013;28;20048;-71
2023/05/16 09:09:29;;;;;;;9.55;1.70;;;28.90;45.70;;;;;;4941409;28;20526;-70
2023/05/16 09:11:56;;;;;;;19.42;2.42;;;28.80;45.80;;;;;;4949809;29;20141;-70
2023/05/16 09:14:23;;;;;;;11.55;1.90;;;28.60;45.90;;;;;;4948780;29;20581;-70
2023/05/16 09:17:04;;;;;;;10.98;1.88;;;28.60;46.30;;;;;;4953212;28;20058;-71
2023/05/16 09:19:38;;;;;;;7.75;2.00;;;28.80;46.00;;;;;;4944457;29;20059;-71
2023/05/16 09:22:06;;;;;;;5.70;1.55;;;28.60;46.50;;;;;;4946883;29;20199;-71
2023/05/16 09:24:38;;;;;;;10.55;1.98;;;28.40;46.30;;;;;;4946869;28;20048;-72
2023/05/16 09:27:09;;;;;;;;;;;28.20;46.40;;;;;;4949968;29;20051;-71
2023/05/16 09:29:36;;;;;;;14.68;1.80;;;28.20;46.40;;;;;;4961989;28;19930;-72
2023/05/16 09:32:10;;;;;;;9.85;3.95;;;28.40;46.90;;;;;;4926559;29;20047;-73
2023/05/16 09:34:44;;;;;;;7.07;1.70;;;29.10;45.60;;;;;;4945995;28;20083;-70
2023/05/16 09:37:11;;;;;;;3.17;1.70;;;29.50;45.40;;;;;;4933737;29;20551;-71
2023/05/16 09:39:46;;;;;;;9.68;1.58;;;29.70;44.80;;;;;;4940639;29;20043;-71
2023/05/16 09:42:13;;;;;;;8.82;1.55;;;30.10;44.40;;;;;;4950071;28;20127;-71
2023/05/16 09:44:41;;;;;;;8.15;1.48;;;30.40;44.00;;;;;;4952546;28;20078;-71
2023/05/16 09:47:09;;;;;;;14.70;2.15;;;30.60;43.20;;;;;;4952691;28;20126;-72
2023/05/16 09:49:37;;;;;;;6.90;1.90;;;30.50;43.40;;;;;;4950411;28;20907;-72
2023/05/16 09:52:05;;;;;;;5.93;1.58;;;30.40;43.60;;;;;;4950480;28;20039;-72
2023/05/16 09:54:34;;;;;;;8.05;1.70;;;31.00;43.10;;;;;;4952195;28;20107;-71
2023/05/16 09:57:03;;;;;;;5.35;1.60;;;31.70;43.00;;;;;;4948879;28;20055;-71
2023/05/16 09:59:30;;;;;;;7.88;1.88;;;32.30;42.60;;;;;;4948881;28;20099;-77
2023/05/16 10:01:59;;;;;;;7.40;1.95;;;32.90;42.00;;;;;;4950625;29;20047;-78
2023/05/16 10:04:26;;;;;;;10.93;1.90;;;33.50;40.50;;;;;;4954733;29;20110;-78
2023/05/16 10:06:56;;;;;;;11.23;1.63;;;32.40;40.50;;;;;;4954711;29;20078;-77
2023/05/16 10:09:24;;;;;;;8.52;1.30;;;31.10;41.20;;;;;;4955541;28;20047;-78
2023/05/16 10:11:52;;;;;;;11.82;1.85;;;29.60;42.70;;;;;;4956147;29;20424;-78
2023/05/16 10:14:22;;;;;;;3.55;1.38;;;28.80;44.00;;;;;;4955762;28;20047;-80
2023/05/16 10:16:51;;;;;;;9.90;2.10;;;28.50;44.20;;;;;;4955737;28;20536;-78
2023/05/16 10:19:21;;;;;;;5.80;1.80;;;28.40;44.80;;;;;;4955900;28;20051;-78
2023/05/16 10:21:51;;;;;;;6.63;1.80;;;28.60;44.60;;;;;;4970255;28;20070;-78
2023/05/16 10:24:26;;;;;;;10.15;1.65;;;29.00;44.60;;;;;;4952068;29;20051;-77
2023/05/16 10:26:53;;;;;;;6.75;1.52;;;28.70;44.10;;;;;;4953597;29;20428;-81
2023/05/16 10:29:23;;;;;;;14.43;2.10;;;28.00;44.30;;;;;;4952112;29;20595;-79
2023/05/16 10:31:51;;;;;;;6.95;1.30;;;27.50;45.10;;;;;;4955193;29;20575;-71
2023/05/16 10:34:18;;;;;;;5.32;1.67;;;27.50;45.60;;;;;;4949739;28;20547;-72
2023/05/16 10:36:47;;;;;;;4.35;1.50;;;27.80;45.50;;;;;;4955438;29;20066;-72
2023/05/16 10:39:15;;;;;;;6.05;1.50;;;28.40;44.80;;;;;;4955342;28;20472;-74
2023/05/16 10:41:43;;;;;;;6.57;1.77;;;28.80;44.20;;;;;;4953721;28;20117;-71
2023/05/16 10:44:15;;;;;;;3.10;1.20;;;29.30;43.60;;;;;;4953865;28;20042;-71
2023/05/16 10:46:46;;;;;;;5.40;1.98;;;29.70;43.00;;;;;;4955738;28;20055;-71
2023/05/16 10:49:21;;;;;;;4.38;2.08;;;30.40;42.40;;;;;;4954249;28;20531;-71
2023/05/16 10:52:07;;;;;;;7.57;1.58;;;31.00;41.60;;;;;;4951795;28;20053;-72
2023/05/16 10:54:36;;;;;;;6.90;2.60;;;31.00;40.90;;;;;;4954902;28;20459;-71
2023/05/16 10:57:08;;;;;;;5.57;2.72;;;30.40;41.30;;;;;;4949675;28;20059;-74
2023/05/16 10:59:44;;;;;;;8.20;3.28;;;30.00;42.10;;;;;;4939559;28;20095;-72
2023/05/16 11:02:27;;;;;;;7.93;2.63;;;29.90;42.40;;;;;;4949841;29;20081;-75
2023/05/16 11:04:58;;;;;;;6.05;2.03;;;29.30;43.60;;;;;;4953292;29;20149;-74
2023/05/16 11:07:31;;;;;;;4.68;1.50;;;29.00;43.30;;;;;;4955137;28;20055;-74
2023/05/16 11:10:07;;;;;;;10.40;1.92;;;28.90;43.60;;;;;;4954073;28;20062;-74
2023/05/16 11:12:43;;;;;;;4.32;1.65;;;29.10;43.80;;;;;;4952419;28;20051;-74
2023/05/16 11:15:25;;;;;;;8.57;2.30;;;29.40;43.60;;;;;;4955274;28;20058;-75
2023/05/16 11:18:05;;;;;;;6.70;2.20;;;29.60;43.00;;;;;;4952061;28;20047;-82
2023/05/16 11:20:34;;;;;;;6.13;1.63;;;30.30;42.30;;;;;;4944179;29;20058;-81
2023/05/16 11:23:24;;;;;;;6.88;2.22;;;30.90;42.00;;;;;;4947084;28;20131;-80
2023/05/16 11:25:57;;;;;;;2.42;1.60;;;31.60;41.20;;;;;;4949513;29;20062;-79
2023/05/16 11:28:26;;;;;;;6.68;1.65;;;31.30;40.70;;;;;;4952865;28;20062;-81
2023/05/16 11:30:55;;;;;;;3.90;1.77;;;31.40;41.40;;;;;;4953265;28;20119;-81
2023/05/16 11:33:26;;;;;;;8.18;1.60;;;32.60;39.80;;;;;;4954486;28;20904;-81
2023/05/16 11:36:01;;;;;;;7.93;1.77;;;32.30;39.30;;;;;;4967775;28;20066;-81
2023/05/16 11:38:31;;;;;;;4.85;1.38;;;30.50;40.80;;;;;;4951740;28;20058;-82
2023/05/16 11:41:04;;;;;;;5.90;1.77;;;29.30;42.50;;;;;;4966343;28;20543;-82
2023/05/16 11:43:38;;;;;;;4.60;1.40;;;28.80;43.90;;;;;;4954225;28;20472;-74
2023/05/16 11:46:06;;;;;;;3.70;1.90;;;28.50;44.10;;;;;;4952158;29;20066;-74
2023/05/16 11:48:35;;;;;;;4.32;1.33;;;29.00;43.90;;;;;;4968354;28;20397;-74
2023/05/16 11:51:02;;;;;;;8.45;1.40;;;29.40;43.00;;;;;;4952646;28;20046;-73
2023/05/16 11:53:30;;;;;;;6.47;1.60;;;28.80;43.10;;;;;;4968493;28;20481;-75
2023/05/16 11:55:59;;;;;;;9.15;1.40;;;28.10;44.20;;;;;;4953816;29;20140;-76
2023/05/16 11:58:27;;;;;;;11.40;2.67;;;27.70;44.30;;;;;;4953128;28;20051;-74
2023/05/16 12:00:55;;;;;;;6.43;1.35;;;27.30;44.30;;;;;;4951453;29;20428;-74
2023/05/16 12:03:23;;;;;;;5.32;1.98;;;26.90;44.80;;;;;;4948146;28;20501;-75
2023/05/16 12:05:53;;;;;;;10.48;2.03;;;26.50;45.80;;;;;;4967899;28;20043;-74
2023/05/16 12:08:23;;;;;;;1.55;1.45;;;26.10;46.40;;;;;;4965420;28;20548;-74
2023/05/16 12:10:52;;;;;;;8.82;1.77;;;25.90;46.60;;;;;;4953747;29;20079;-74
2023/05/16 12:13:22;;;;;;;7.32;1.48;;;25.50;47.10;;;;;;4952833;28;20408;-74
2023/05/16 12:15:51;;;;;;;6.63;1.40;;;25.10;47.60;;;;;;4953716;28;20513;-74
2023/05/16 12:18:19;;;;;;;13.43;1.75;;;24.80;48.30;;;;;;4949469;28;20087;-75
2023/05/16 12:20:47;;;;;;;5.47;1.45;;;24.50;48.80;;;;;;4951149;28;20058;-74
2023/05/16 12:23:16;;;;;;;8.65;2.67;;;24.30;48.60;;;;;;4950045;28;20047;-75
2023/05/16 12:25:48;;;;;;;4.97;1.52;;;24.10;48.80;;;;;;4949269;28;20058;-72
2023/05/16 12:28:16;;;;;;;4.75;2.20;;;24.00;49.30;;;;;;4954048;28;21002;-73
2023/05/16 12:30:46;;;;;;;6.53;1.90;;;23.80;49.30;;;;;;4952787;29;20047;-77
2023/05/16 12:33:16;;;;;;;8.73;1.65;;;23.70;49.90;;;;;;4946254;28;20051;-73
2023/05/16 12:35:45;;;;;;;4.45;1.65;;;23.50;50.00;;;;;;4951316;29;20133;-84
2023/05/16 12:38:16;;;;;;;11.45;1.80;;;23.30;50.40;;;;;;4950770;28;20043;-80
2023/05/16 12:40:44;;;;;;;1.50;1.30;;;23.20;50.70;;;;;;4953384;28;20156;-81
2023/05/16 12:43:15;;;;;;;4.25;1.50;;;23.20;50.50;;;;;;4944838;29;20058;-80
2023/05/16 12:45:43;;;;;;;4.80;1.48;;;23.30;50.50;;;;;;4949550;29;20047;-79
2023/05/16 12:48:14;;;;;;;11.38;1.83;;;23.30;50.30;;;;;;4946507;29;20480;-76
2023/05/16 12:50:41;;;;;;;15.10;1.98;;;23.50;50.90;;;;;;4945718;29;20058;-76
2023/05/16 12:53:12;;;;;;;6.38;1.63;;;23.60;49.90;;;;;;4947752;28;20063;-75